createdAt,value
2017-11-05T00:01:38.665Z,10.92
2017-11-05T00:04:04.707Z,10.81
2017-11-05T00:06:30.669Z,10.86
2017-11-05T00:08:56.616Z,10.90
2017-11-05T00:11:22.553Z,11.32
2017-11-05T00:13:48.510Z,11.21
2017-11-05T00:16:14.457Z,11.01
2017-11-05T00:18:40.435Z,11.12
2017-11-05T00:21:06.416Z,11.10
2017-11-05T00:23:32.401Z,11.16
2017-11-05T00:25:58.486Z,11.14
2017-11-05T00:28:24.434Z,11.15
2017-11-05T00:30:50.460Z,10.70
2017-11-05T00:33:16.424Z,11.03
2017-11-05T00:35:42.360Z,11.27
2017-11-05T00:38:08.310Z,11.15
2017-11-05T00:40:35.353Z,11.32
2017-11-05T00:43:01.306Z,11.07
2017-11-05T00:45:27.307Z,11.17
2017-11-05T00:47:53.249Z,11.02
2017-11-05T00:50:19.253Z,11.16
2017-11-05T00:52:45.238Z,11.43
2017-11-05T00:55:11.201Z,11.38
2017-11-05T00:57:37.224Z,11.14
2017-11-05T01:00:03.193Z,11.22
2017-11-05T01:02:29.129Z,11.39
2017-11-05T01:04:55.108Z,11.14
2017-11-05T01:07:21.115Z,11.49
2017-11-05T01:09:47.083Z,11.17
2017-11-05T01:12:13.078Z,10.86
2017-11-05T01:14:39.034Z,11.31
2017-11-05T01:17:05.038Z,11.32
2017-11-05T01:22:02.374Z,11.40
2017-11-05T01:27:00.211Z,11.20
2017-11-05T01:29:29.213Z,11.18
2017-11-05T01:31:55.165Z,11.28
2017-11-05T01:34:21.125Z,11.24
2017-11-05T01:36:47.136Z,11.29
2017-11-05T01:39:13.092Z,11.21
2017-11-05T01:41:39.075Z,11.08
2017-11-05T01:44:05.050Z,11.00
2017-11-05T01:46:30.990Z,11.16
2017-11-05T01:48:56.943Z,11.02
2017-11-05T01:51:22.881Z,10.91
2017-11-05T01:53:48.833Z,11.11
2017-11-05T01:56:14.779Z,11.28
2017-11-05T01:58:40.739Z,11.33
2017-11-05T02:01:06.731Z,11.43
2017-11-05T02:03:32.669Z,11.20
2017-11-05T02:05:58.939Z,11.34
2017-11-05T02:08:24.949Z,11.06
2017-11-05T02:10:50.900Z,11.34
2017-11-05T02:13:16.828Z,11.02
2017-11-05T02:15:42.788Z,11.11
2017-11-05T02:18:08.731Z,11.21
2017-11-05T02:20:34.679Z,11.29
2017-11-05T02:23:00.631Z,11.29
2017-11-05T02:25:26.579Z,11.49
2017-11-05T02:27:52.549Z,11.20
2017-11-05T02:30:18.487Z,11.46
2017-11-05T02:32:44.469Z,11.00
2017-11-05T02:35:10.418Z,11.48
2017-11-05T02:37:36.359Z,11.30
2017-11-05T02:40:02.337Z,11.38
2017-11-05T02:42:28.255Z,11.33
2017-11-05T02:44:54.211Z,11.31
2017-11-05T02:47:20.189Z,11.51
2017-11-05T02:49:46.136Z,11.40
2017-11-05T02:52:12.130Z,11.16
2017-11-05T02:54:38.073Z,11.22
2017-11-05T02:57:03.997Z,11.02
2017-11-05T02:59:29.959Z,11.03
2017-11-05T03:01:55.916Z,11.08
2017-11-05T03:04:21.873Z,11.17
2017-11-05T03:06:47.810Z,11.21
2017-11-05T03:09:13.776Z,11.18
2017-11-05T03:11:39.755Z,11.09
2017-11-05T03:14:05.685Z,11.08
2017-11-05T03:16:31.666Z,11.38
2017-11-05T03:18:57.641Z,11.40
2017-11-05T03:21:23.563Z,11.41
2017-11-05T03:23:49.820Z,11.18
2017-11-05T03:26:15.804Z,10.96
2017-11-05T03:28:41.769Z,11.14
2017-11-05T03:31:07.706Z,11.20
2017-11-05T03:33:33.713Z,11.22
2017-11-05T03:35:59.649Z,10.99
2017-11-05T03:38:25.614Z,10.99
2017-11-05T03:40:51.599Z,11.11
2017-11-05T03:43:17.541Z,11.41
2017-11-05T03:45:43.477Z,11.21
2017-11-05T03:48:09.429Z,11.18
2017-11-05T03:50:35.375Z,11.11
2017-11-05T03:53:01.352Z,11.44
2017-11-05T03:55:27.294Z,11.29
2017-11-05T03:57:53.260Z,11.37
2017-11-05T04:00:19.222Z,11.31
2017-11-05T04:02:45.160Z,11.34
2017-11-05T04:05:11.099Z,10.99
2017-11-05T04:07:37.038Z,11.24
2017-11-05T04:10:03.000Z,11.28
2017-11-05T04:12:28.955Z,11.46
2017-11-05T04:14:54.913Z,11.22
2017-11-05T04:17:20.863Z,11.19
2017-11-05T04:19:46.827Z,11.13
2017-11-05T04:22:12.797Z,11.07
2017-11-05T04:24:38.730Z,11.25
2017-11-05T04:27:04.678Z,11.31
2017-11-05T04:29:30.627Z,11.04
2017-11-05T04:31:56.576Z,11.12
2017-11-05T04:34:22.531Z,11.27
2017-11-05T04:36:48.485Z,11.22
2017-11-05T04:39:14.417Z,11.28
2017-11-05T04:41:40.394Z,11.22
2017-11-05T04:44:06.382Z,11.29
2017-11-05T04:46:32.371Z,11.18
2017-11-05T04:48:58.296Z,11.17
2017-11-05T04:51:24.279Z,11.31
2017-11-05T04:53:50.214Z,11.50
2017-11-05T04:56:16.169Z,11.10
2017-11-05T04:58:42.118Z,11.23
2017-11-05T05:01:08.104Z,11.22
2017-11-05T05:03:34.074Z,11.03
2017-11-05T05:06:00.021Z,11.10
2017-11-05T05:08:25.962Z,11.33
2017-11-05T05:10:51.889Z,11.03
2017-11-05T05:13:17.820Z,11.09
2017-11-05T05:15:43.760Z,11.01
2017-11-05T05:18:09.703Z,11.02
2017-11-05T05:20:35.644Z,11.02
2017-11-05T05:23:01.650Z,10.91
2017-11-05T05:25:27.589Z,11.10
2017-11-05T05:27:53.544Z,10.88
2017-11-05T05:30:19.487Z,11.05
2017-11-05T05:32:45.433Z,11.23
2017-11-05T05:35:11.428Z,11.26
2017-11-05T05:37:37.466Z,10.88
2017-11-05T05:40:03.475Z,11.09
2017-11-05T05:42:29.430Z,10.98
2017-11-05T05:44:55.386Z,11.24
2017-11-05T05:47:21.328Z,11.14
2017-11-05T05:49:47.278Z,11.06
2017-11-05T05:52:13.249Z,11.03
2017-11-05T05:54:39.204Z,11.11
2017-11-05T05:57:05.148Z,11.06
2017-11-05T05:59:31.078Z,11.15
2017-11-05T06:01:57.019Z,11.17
2017-11-05T06:04:22.980Z,11.24
2017-11-05T06:06:48.985Z,11.18
2017-11-05T06:09:14.965Z,11.07
2017-11-05T06:11:40.928Z,11.10
2017-11-05T06:14:06.867Z,11.07
2017-11-05T06:16:32.829Z,11.07
2017-11-05T06:18:58.774Z,10.84
2017-11-05T06:21:24.728Z,11.10
2017-11-05T06:23:50.664Z,10.95
2017-11-05T06:26:16.654Z,10.84
2017-11-05T06:28:42.593Z,10.86
2017-11-05T06:31:08.542Z,11.02
2017-11-05T06:33:34.488Z,11.05
2017-11-05T06:36:00.436Z,11.02
2017-11-05T06:38:26.494Z,11.02
2017-11-05T06:40:52.435Z,11.11
2017-11-05T06:43:18.374Z,11.01
2017-11-05T06:45:44.305Z,11.22
2017-11-05T06:48:10.265Z,11.25
2017-11-05T06:50:36.265Z,10.86
2017-11-05T06:53:02.220Z,11.16
2017-11-05T06:55:28.191Z,11.32
2017-11-05T06:57:54.136Z,11.23
2017-11-05T07:00:20.093Z,10.99
2017-11-05T07:02:46.024Z,11.28
2017-11-05T07:05:12.028Z,11.22
2017-11-05T07:07:37.996Z,11.44
2017-11-05T07:10:04.197Z,11.23
2017-11-05T07:12:30.142Z,11.42
2017-11-05T07:14:56.124Z,11.24
2017-11-05T07:17:22.094Z,11.44
2017-11-05T07:19:48.059Z,11.38
2017-11-05T07:22:14.024Z,11.41
2017-11-05T07:24:40.021Z,11.62
2017-11-05T07:27:05.950Z,11.52
2017-11-05T07:29:31.906Z,11.54
2017-11-05T07:31:57.874Z,11.63
2017-11-05T07:34:23.946Z,11.73
2017-11-05T07:36:49.902Z,11.58
2017-11-05T07:39:15.928Z,11.56
2017-11-05T07:41:41.887Z,11.68
2017-11-05T07:44:07.836Z,11.62
2017-11-05T07:46:33.813Z,11.50
2017-11-05T07:48:59.764Z,11.67
2017-11-05T07:51:25.716Z,11.61
2017-11-05T07:53:51.724Z,11.66
2017-11-05T07:56:17.683Z,11.61
2017-11-05T07:58:43.646Z,11.73
2017-11-05T08:01:09.587Z,11.72
2017-11-05T08:03:35.538Z,11.72
2017-11-05T08:06:01.532Z,11.87
2017-11-05T08:08:27.464Z,11.69
2017-11-05T08:10:53.456Z,11.83
2017-11-05T08:13:19.408Z,11.76
2017-11-05T08:15:45.350Z,11.77
2017-11-05T08:18:11.302Z,11.81
2017-11-05T08:20:37.266Z,11.72
2017-11-05T08:23:03.196Z,11.83
2017-11-05T08:25:29.197Z,11.89
2017-11-05T08:27:55.143Z,11.95
2017-11-05T08:30:21.139Z,11.77
2017-11-05T08:32:47.080Z,11.86
2017-11-05T08:35:13.024Z,11.73
2017-11-05T08:37:39.034Z,11.87
2017-11-05T08:40:04.980Z,12.06
2017-11-05T08:42:30.928Z,11.97
2017-11-05T08:44:56.856Z,11.89
2017-11-05T08:47:22.781Z,11.99
2017-11-05T08:49:48.796Z,11.87
2017-11-05T08:52:14.786Z,11.92
2017-11-05T08:54:40.740Z,11.95
2017-11-05T08:57:06.670Z,11.78
2017-11-05T08:59:33.712Z,11.95
2017-11-05T09:01:59.666Z,11.96
2017-11-05T09:04:25.614Z,11.86
2017-11-05T09:06:51.576Z,11.85
2017-11-05T09:09:17.510Z,11.96
2017-11-05T09:11:43.507Z,11.86
2017-11-05T09:14:09.469Z,11.94
2017-11-05T09:16:35.409Z,11.91
2017-11-05T09:19:01.415Z,11.94
2017-11-05T09:21:27.353Z,11.95
2017-11-05T09:23:53.359Z,11.94
2017-11-05T09:26:19.297Z,12.03
2017-11-05T09:28:45.220Z,11.95
2017-11-05T09:31:11.181Z,11.91
2017-11-05T09:33:37.102Z,12.02
2017-11-05T09:36:03.073Z,12.09
2017-11-05T09:38:29.074Z,12.02
2017-11-05T09:40:55.204Z,11.89
2017-11-05T09:43:21.147Z,12.03
2017-11-05T09:45:47.100Z,12.12
2017-11-05T09:48:13.046Z,12.22
2017-11-05T09:50:38.984Z,11.96
2017-11-05T09:53:04.996Z,12.08
2017-11-05T09:55:30.947Z,12.15
2017-11-05T09:57:56.873Z,12.18
2017-11-05T10:00:22.892Z,12.21
2017-11-05T10:02:48.907Z,12.20
2017-11-05T10:05:15.004Z,12.02
2017-11-05T10:07:40.976Z,12.11
2017-11-05T10:10:06.934Z,12.15
2017-11-05T10:12:32.890Z,12.23
2017-11-05T10:14:58.812Z,12.20
2017-11-05T10:17:24.850Z,12.18
2017-11-05T10:19:50.908Z,12.24
2017-11-05T10:22:16.866Z,12.31
2017-11-05T10:24:43.029Z,12.29
2017-11-05T10:27:08.993Z,12.21
2017-11-05T10:29:34.934Z,12.19
2017-11-05T10:32:00.884Z,12.14
2017-11-05T10:34:26.831Z,12.15
2017-11-05T10:36:52.784Z,12.15
2017-11-05T10:39:18.741Z,12.19
2017-11-05T10:41:44.874Z,12.22
2017-11-05T10:44:10.883Z,12.10
2017-11-05T10:46:36.837Z,11.90
2017-11-05T10:49:02.782Z,12.10
2017-11-05T10:51:28.755Z,12.01
2017-11-05T10:53:54.904Z,12.19
2017-11-05T10:56:20.909Z,12.32
2017-11-05T10:58:46.856Z,12.20
2017-11-05T11:01:12.798Z,12.15
2017-11-05T11:03:38.818Z,12.36
2017-11-05T11:06:04.837Z,12.32
2017-11-05T11:08:30.784Z,12.20
2017-11-05T11:10:56.734Z,12.22
2017-11-05T11:13:22.701Z,12.28
2017-11-05T11:15:48.662Z,12.21
2017-11-05T11:18:14.600Z,12.26
2017-11-05T11:20:40.602Z,12.31
2017-11-05T11:23:06.577Z,12.31
2017-11-05T11:25:33.624Z,12.24
2017-11-05T11:27:59.576Z,12.15
2017-11-05T11:30:25.564Z,12.20
2017-11-05T11:32:52.649Z,12.37
2017-11-05T11:35:18.624Z,12.48
2017-11-05T11:37:44.648Z,12.43
2017-11-05T11:40:10.604Z,12.26
2017-11-05T11:42:36.613Z,12.50
2017-11-05T11:45:02.620Z,12.37
2017-11-05T11:47:32.459Z,12.50
2017-11-05T11:49:58.440Z,12.48
2017-11-05T11:52:24.405Z,12.54
2017-11-05T11:59:53.723Z,12.55
2017-11-05T12:02:19.667Z,12.63
2017-11-05T12:04:45.609Z,12.55
2017-11-05T12:07:11.570Z,12.66
2017-11-05T12:09:37.515Z,12.66
2017-11-05T12:12:03.501Z,12.67
2017-11-05T12:14:29.456Z,12.52
2017-11-05T12:16:55.407Z,12.46
2017-11-05T12:19:21.424Z,12.70
2017-11-05T12:21:47.419Z,12.58
2017-11-05T12:24:13.395Z,12.76
2017-11-05T12:26:39.331Z,12.71
2017-11-05T12:29:05.311Z,12.67
2017-11-05T12:31:31.298Z,12.71
2017-11-05T12:33:58.288Z,12.67
2017-11-05T12:36:24.275Z,12.62
2017-11-05T12:38:50.349Z,12.68
2017-11-05T12:41:16.405Z,12.66
2017-11-05T12:43:42.473Z,12.60
2017-11-05T12:46:08.449Z,12.88
2017-11-05T12:48:34.416Z,12.70
2017-11-05T12:51:00.361Z,12.63
2017-11-05T12:53:26.330Z,12.68
2017-11-05T12:55:52.287Z,12.81
2017-11-05T12:58:18.300Z,12.91
2017-11-05T13:00:44.239Z,13.01
2017-11-05T13:03:10.399Z,13.12
2017-11-05T13:05:36.396Z,13.11
2017-11-05T13:08:02.359Z,13.01
2017-11-05T13:10:28.313Z,13.00
2017-11-05T13:12:54.283Z,13.02
2017-11-05T13:15:20.270Z,12.97
2017-11-05T13:17:46.252Z,13.00
2017-11-05T13:20:12.240Z,13.03
2017-11-05T13:22:38.229Z,13.07
2017-11-05T13:25:04.185Z,12.95
2017-11-05T13:27:30.167Z,12.98
2017-11-05T13:29:56.108Z,13.08
2017-11-05T13:32:22.103Z,13.03
2017-11-05T13:34:48.044Z,13.09
2017-11-05T13:37:14.009Z,13.11
2017-11-05T13:39:39.961Z,13.03
2017-11-05T13:42:06.020Z,13.05
2017-11-05T13:44:33.316Z,13.29
2017-11-05T13:46:59.420Z,13.28
2017-11-05T13:49:25.379Z,13.18
2017-11-05T13:51:51.346Z,13.13
2017-11-05T13:54:17.293Z,13.30
2017-11-05T13:56:43.236Z,13.27
2017-11-05T13:59:09.169Z,13.38
2017-11-05T14:01:35.145Z,13.23
2017-11-05T14:04:01.088Z,13.08
2017-11-05T14:06:27.032Z,13.09
2017-11-05T14:08:52.989Z,13.11
2017-11-05T14:11:18.970Z,13.21
2017-11-05T14:13:45.049Z,13.13
2017-11-05T14:16:10.998Z,13.12
2017-11-05T14:18:36.959Z,13.19
2017-11-05T14:21:02.923Z,13.08
2017-11-05T14:23:28.886Z,13.05
2017-11-05T14:25:54.913Z,13.13
2017-11-05T14:28:21.080Z,13.03
2017-11-05T14:30:47.058Z,12.95
2017-11-05T14:33:13.045Z,12.98
2017-11-05T14:35:38.992Z,13.05
2017-11-05T14:38:04.951Z,12.98
2017-11-05T14:40:30.902Z,12.79
2017-11-05T14:42:56.879Z,12.85
2017-11-05T14:45:22.863Z,12.75
2017-11-05T14:47:48.793Z,12.74
2017-11-05T14:50:14.778Z,12.81
2017-11-05T14:52:40.762Z,12.78
2017-11-05T14:55:06.714Z,12.48
2017-11-05T14:57:32.660Z,12.67
2017-11-05T14:59:58.641Z,12.75
2017-11-05T15:02:25.642Z,12.62
2017-11-05T15:04:51.666Z,12.66
2017-11-05T15:07:17.616Z,12.73
2017-11-05T15:09:43.628Z,12.81
2017-11-05T15:12:09.575Z,12.69
2017-11-05T15:14:35.516Z,12.67
2017-11-05T15:17:01.470Z,12.61
2017-11-05T15:19:27.411Z,12.58
2017-11-05T15:21:53.412Z,12.52
2017-11-05T15:24:19.416Z,12.54
2017-11-05T15:26:45.364Z,12.46
2017-11-05T15:29:11.340Z,12.50
2017-11-05T15:31:37.273Z,12.68
2017-11-05T15:34:03.289Z,12.64
2017-11-05T15:36:29.352Z,12.29
2017-11-05T15:38:55.296Z,12.46
2017-11-05T15:41:21.268Z,12.52
2017-11-05T15:43:47.234Z,12.58
2017-11-05T15:46:13.204Z,12.38
2017-11-05T15:48:39.145Z,12.37
2017-11-05T15:51:05.116Z,12.51
2017-11-05T15:53:31.041Z,12.40
2017-11-05T15:55:57.072Z,12.38
2017-11-05T15:58:23.052Z,12.54
2017-11-05T16:00:49.304Z,12.61
2017-11-05T16:03:15.236Z,12.49
2017-11-05T16:05:41.152Z,12.42
2017-11-05T16:08:07.076Z,12.48
2017-11-05T16:10:33.056Z,12.49
2017-11-05T16:12:59.008Z,12.44
2017-11-05T16:15:24.978Z,12.36
2017-11-05T16:17:50.906Z,12.36
2017-11-05T16:20:16.838Z,12.39
2017-11-05T16:22:42.769Z,12.32
2017-11-05T16:25:08.722Z,12.29
2017-11-05T16:27:34.704Z,12.29
2017-11-05T16:30:00.652Z,12.27
2017-11-05T16:32:26.600Z,12.22
2017-11-05T16:34:52.552Z,12.30
2017-11-05T16:37:18.484Z,12.23
2017-11-05T16:39:44.416Z,12.25
2017-11-05T16:42:10.376Z,12.22
2017-11-05T16:44:36.308Z,12.33
2017-11-05T16:47:02.327Z,12.37
2017-11-05T16:49:28.310Z,12.39
2017-11-05T16:51:54.272Z,12.32
2017-11-05T16:54:20.276Z,12.37
2017-11-05T16:56:46.228Z,12.32
2017-11-05T16:59:12.210Z,12.35
2017-11-05T17:01:38.160Z,12.28
2017-11-05T17:04:04.115Z,12.43
2017-11-05T17:06:30.084Z,12.49
2017-11-05T17:08:56.027Z,12.38
2017-11-05T17:11:21.983Z,12.31
2017-11-05T17:13:48.031Z,12.46
2017-11-05T17:16:13.990Z,12.48
2017-11-05T17:18:39.963Z,12.26
2017-11-05T17:21:06.026Z,12.32
2017-11-05T17:23:31.981Z,12.44
2017-11-05T17:25:57.927Z,12.49
2017-11-05T17:28:23.938Z,12.27
2017-11-05T17:30:49.908Z,12.17
2017-11-05T17:33:15.859Z,12.33
2017-11-05T17:35:42.153Z,12.40
2017-11-05T17:38:08.178Z,12.36
2017-11-05T17:40:34.174Z,12.25
2017-11-05T17:43:00.194Z,12.14
2017-11-05T17:45:26.131Z,12.23
2017-11-05T17:47:52.485Z,12.21
2017-11-05T17:50:18.454Z,12.22
2017-11-05T17:52:44.401Z,12.36
2017-11-05T17:55:10.584Z,12.19
2017-11-05T17:57:36.562Z,12.30
2017-11-05T18:00:02.520Z,12.38
2017-11-05T18:02:28.876Z,12.37
2017-11-05T18:04:54.912Z,12.44
2017-11-05T18:07:20.914Z,12.02
2017-11-05T18:09:46.931Z,12.16
2017-11-05T18:12:12.892Z,12.30
2017-11-05T18:14:38.837Z,12.22
2017-11-05T18:17:04.992Z,12.28
2017-11-05T18:19:31.178Z,12.30
2017-11-05T18:21:57.588Z,12.28
2017-11-05T18:24:24.011Z,12.47
2017-11-05T18:26:50.301Z,12.61
2017-11-05T18:29:16.840Z,12.64
2017-11-05T18:31:43.202Z,12.60
2017-11-05T18:34:09.490Z,12.67
2017-11-05T18:36:35.461Z,12.72
2017-11-05T18:39:01.436Z,12.71
2017-11-05T18:41:27.388Z,12.67
2017-11-05T18:43:53.328Z,12.63
2017-11-05T18:46:19.315Z,12.65
2017-11-05T18:48:45.271Z,12.66
2017-11-05T18:51:11.293Z,12.53
2017-11-05T18:53:37.248Z,12.61
2017-11-05T18:56:03.373Z,12.46
2017-11-05T18:58:29.329Z,12.62
2017-11-05T19:00:55.297Z,12.61
2017-11-05T19:10:06.754Z,12.59
2017-11-05T19:12:32.702Z,12.87
2017-11-05T19:14:58.663Z,13.43
2017-11-05T19:17:24.597Z,13.40
2017-11-05T19:19:50.549Z,13.52
2017-11-05T19:22:16.504Z,13.36
2017-11-05T19:24:42.446Z,13.77
2017-11-05T19:27:08.465Z,13.92
2017-11-05T19:29:34.424Z,14.02
2017-11-05T19:32:01.396Z,13.92
2017-11-05T19:34:27.367Z,13.79
2017-11-05T19:36:53.312Z,13.74
2017-11-05T19:39:19.284Z,13.19
2017-11-05T19:41:45.248Z,12.71
2017-11-05T19:44:11.204Z,12.59
2017-11-05T19:46:37.176Z,12.51
2017-11-05T19:49:03.142Z,12.63
2017-11-05T19:51:29.109Z,12.48
2017-11-05T19:53:55.075Z,12.36
2017-11-05T19:56:21.040Z,12.39
2017-11-05T19:58:46.990Z,12.36
2017-11-05T20:01:12.943Z,12.25
2017-11-05T20:03:38.883Z,12.38
2017-11-05T20:06:04.905Z,12.44
2017-11-05T20:08:30.948Z,12.24
2017-11-05T20:10:56.886Z,12.29
2017-11-05T20:13:22.926Z,12.20
2017-11-05T20:15:48.880Z,12.18
2017-11-05T20:18:14.855Z,12.15
2017-11-05T20:20:40.824Z,12.18
2017-11-05T20:23:06.913Z,12.16
2017-11-05T20:25:32.876Z,12.17
2017-11-05T20:27:58.820Z,12.21
2017-11-05T20:30:24.852Z,12.16
2017-11-05T20:32:50.870Z,12.23
2017-11-05T20:35:16.840Z,12.30
2017-11-05T20:37:42.820Z,12.19
2017-11-05T20:40:08.839Z,12.18
2017-11-05T20:42:34.802Z,12.19
2017-11-05T20:45:04.797Z,12.11
2017-11-05T20:47:30.779Z,12.21
2017-11-05T20:49:56.716Z,12.20
2017-11-05T20:52:22.844Z,12.16
2017-11-05T20:54:49.697Z,12.08
2017-11-05T20:57:15.644Z,12.23
2017-11-05T20:59:41.596Z,12.26
2017-11-05T21:02:07.552Z,11.91
2017-11-05T21:04:33.490Z,12.06
2017-11-05T21:06:59.425Z,11.98
2017-11-05T21:09:25.375Z,11.97
2017-11-05T21:11:51.305Z,12.01
2017-11-05T21:14:17.247Z,12.03
2017-11-05T21:16:43.192Z,12.01
2017-11-05T21:19:09.138Z,11.91
2017-11-05T21:21:35.088Z,11.65
2017-11-05T21:24:01.042Z,11.91
2017-11-05T21:26:26.998Z,11.72
2017-11-05T21:28:52.976Z,11.91
2017-11-05T21:31:18.932Z,11.85
2017-11-05T21:33:44.867Z,11.90
2017-11-05T21:36:10.844Z,11.80
2017-11-05T21:38:36.813Z,11.71
2017-11-05T21:41:02.789Z,11.74
2017-11-05T21:43:28.719Z,11.75
2017-11-05T21:45:54.703Z,11.88
2017-11-05T21:48:20.644Z,11.89
2017-11-05T21:50:46.577Z,11.67
2017-11-05T21:53:12.512Z,11.74
2017-11-05T21:55:38.472Z,11.72
2017-11-05T21:58:04.567Z,11.79
2017-11-05T22:00:30.505Z,11.78
2017-11-05T22:02:56.457Z,11.76
2017-11-05T22:05:22.408Z,11.73
2017-11-05T22:07:48.372Z,11.78
2017-11-05T22:10:14.499Z,11.71
2017-11-05T22:12:40.491Z,11.82
2017-11-05T22:15:06.441Z,11.82
2017-11-05T22:17:32.380Z,11.74
2017-11-05T22:19:58.394Z,11.75
2017-11-05T22:22:24.360Z,11.79
2017-11-05T22:24:50.341Z,11.64
2017-11-05T22:27:16.291Z,11.81
2017-11-05T22:29:42.227Z,11.66
2017-11-05T22:32:08.191Z,11.70
2017-11-05T22:34:34.138Z,11.68
2017-11-05T22:37:00.162Z,11.66
2017-11-05T22:39:26.162Z,11.69
2017-11-05T22:41:52.113Z,11.63
2017-11-05T22:44:18.089Z,11.61
2017-11-05T22:46:44.188Z,11.64
2017-11-05T22:49:10.180Z,11.67
2017-11-05T22:51:36.140Z,11.73
2017-11-05T22:54:02.109Z,11.68
2017-11-05T22:56:28.084Z,11.64
2017-11-05T22:58:54.035Z,11.66
2017-11-05T23:01:20.011Z,11.74
2017-11-05T23:03:45.983Z,11.78
2017-11-05T23:06:11.928Z,11.62
2017-11-05T23:08:37.918Z,11.62
2017-11-05T23:11:03.854Z,11.81
2017-11-05T23:13:29.817Z,11.74
2017-11-05T23:15:55.792Z,11.83
2017-11-05T23:18:21.737Z,11.73
2017-11-05T23:20:47.675Z,11.83
2017-11-05T23:23:13.609Z,11.78
2017-11-05T23:25:39.594Z,11.85
2017-11-05T23:28:05.520Z,11.72
2017-11-05T23:30:31.527Z,11.73
2017-11-05T23:32:57.462Z,11.71
2017-11-05T23:35:23.440Z,11.72
2017-11-05T23:37:49.390Z,11.80
2017-11-05T23:40:15.334Z,11.80
2017-11-05T23:42:41.292Z,11.78
2017-11-05T23:45:07.235Z,11.73
2017-11-05T23:47:33.222Z,11.71
2017-11-05T23:49:59.224Z,11.82
2017-11-05T23:52:25.189Z,11.79
2017-11-05T23:54:51.115Z,11.86
2017-11-05T23:57:17.094Z,11.82
2017-11-05T23:59:43.055Z,11.74
